Marianne Danica — OWWO2 — position and weather

sailwx.info

Track history (hours):
 
Tides and Currents Weather Stations Pressure Air Temp Water Temp Dewpoint Dewpoint Depression Visibility Wind Speed Wind Dir Waves Ship Positions

Marianne Danica

Last reported at 2016-Feb-07 06:34 UTC. Time now 2016-Feb-14 08:06 UTC.
Position N 37°24' E 025°55'.

Length 71 m; draft 4.6 m.

Type: Ship (hazmat cat A). MMSI: 219544000.

Date/timePositionNaut miles runAvg speedWind from/ knotsBaromVisibWave heightAir tempDewpointWater temp
2016-Feb-07 06:34N 37°24' E 025°55'9 9.2
2016-Feb-07 05:33N 37°32' E 025°49'9 9.5
2016-Feb-07 04:33N 37°41' E 025°45'  
2016-Feb-02 15:16N 40°59' E 028°60'6 8.1
2016-Feb-02 14:33N 40°53' E 029°01'3 2.9
2016-Feb-02 13:32N 40°50' E 029°01'1 0.8
2016-Feb-02 12:27N 40°50' E 029°02'0 0.3
2016-Feb-02 11:34N 40°50' E 029°02'0 0.4
2016-Feb-02 10:31N 40°50' E 029°01'0 0.3
2016-Feb-02 09:33N 40°50' E 029°01'1 0.8
2016-Feb-02 08:34N 40°49' E 029°00'1 0.8
2016-Feb-02 07:14N 40°48' E 029°01'0 0.5
2016-Feb-02 06:28N 40°48' E 029°01'0 0.5
2016-Feb-02 05:26N 40°47' E 029°01'0 0.4
2016-Feb-02 04:26N 40°47' E 029°01'1 0.3
2016-Feb-02 02:33N 40°47' E 029°02'2 1.8
2016-Feb-02 01:32N 40°47' E 029°04'1010.4
2016-Feb-02 00:33N 40°45' E 029°17'16 0.4
2016-Jan-31 04:31N 40°46' E 029°38'8 8.0
2016-Jan-31 03:33N 40°45' E 029°28'11 9.6
2016-Jan-31 02:25N 40°43' E 029°14'9 9.7
2016-Jan-31 01:31N 40°44' E 029°02'233 7.7
2016-Jan-29 19:07N 37°45' E 025°48'711.4
2016-Jan-29 18:33N 37°38' E 025°49'1010.5
2016-Jan-29 17:34N 37°28' E 025°53'  
Track history (hours):
 
Tides and Currents Weather Stations Pressure Air Temp Water Temp Dewpoint Dewpoint Depression Visibility Wind Speed Wind Dir Waves Ship Positions

Marianne Danica

Last reported at 2016-Feb-07 06:34 UTC. Time now 2016-Feb-14 08:06 UTC.
Position N 37°24' E 025°55'.

Length 71 m; draft 4.6 m.

Type: Ship (hazmat cat A). MMSI: 219544000.

Date/timePositionNaut miles runAvg speedWind from/ knotsBaromVisibWave heightAir tempDewpointWater temp
2016-Feb-07 06:34N 37°24' E 025°55'9 9.2
2016-Feb-07 05:33N 37°32' E 025°49'9 9.5
2016-Feb-07 04:33N 37°41' E 025°45'  
2016-Feb-02 15:16N 40°59' E 028°60'6 8.1
2016-Feb-02 14:33N 40°53' E 029°01'3 2.9
2016-Feb-02 13:32N 40°50' E 029°01'1 0.8
2016-Feb-02 12:27N 40°50' E 029°02'0 0.3
2016-Feb-02 11:34N 40°50' E 029°02'0 0.4
2016-Feb-02 10:31N 40°50' E 029°01'0 0.3
2016-Feb-02 09:33N 40°50' E 029°01'1 0.8
2016-Feb-02 08:34N 40°49' E 029°00'1 0.8
2016-Feb-02 07:14N 40°48' E 029°01'0 0.5
2016-Feb-02 06:28N 40°48' E 029°01'0 0.5
2016-Feb-02 05:26N 40°47' E 029°01'0 0.4
2016-Feb-02 04:26N 40°47' E 029°01'1 0.3
2016-Feb-02 02:33N 40°47' E 029°02'2 1.8
2016-Feb-02 01:32N 40°47' E 029°04'1010.4
2016-Feb-02 00:33N 40°45' E 029°17'16 0.4
2016-Jan-31 04:31N 40°46' E 029°38'8 8.0
2016-Jan-31 03:33N 40°45' E 029°28'11 9.6
2016-Jan-31 02:25N 40°43' E 029°14'9 9.7
2016-Jan-31 01:31N 40°44' E 029°02'233 7.7
2016-Jan-29 19:07N 37°45' E 025°48'711.4
2016-Jan-29 18:33N 37°38' E 025°49'1010.5
2016-Jan-29 17:34N 37°28' E 025°53'  

Dump ship's entire track history